createdAt,value
2023-02-02T00:02:14.269Z,1.67
2023-02-02T00:04:41.423Z,2.33
2023-02-02T00:07:09.741Z,1.40
2023-02-02T00:09:36.946Z,1.73
2023-02-02T00:12:04.172Z,1.90
2023-02-02T00:14:31.410Z,1.58
2023-02-02T00:16:59.011Z,1.50
2023-02-02T00:19:27.664Z,2.63
2023-02-02T00:21:55.618Z,2.00
2023-02-02T00:24:23.325Z,1.80
2023-02-02T00:26:51.789Z,1.40
2023-02-02T00:29:20.661Z,1.60
2023-02-02T00:31:48.191Z,1.50
2023-02-02T00:34:15.981Z,2.20
2023-02-02T00:36:43.841Z,1.52
2023-02-02T00:39:11.816Z,1.90
2023-02-02T00:41:39.059Z,1.42
2023-02-02T00:44:24.821Z,1.40
2023-02-02T00:46:51.962Z,1.70
2023-02-02T00:49:19.170Z,1.65
2023-02-02T00:51:46.433Z,1.63
2023-02-02T00:54:14.413Z,1.63
2023-02-02T00:56:41.880Z,1.73
2023-02-02T00:59:09.200Z,1.30
2023-02-02T01:01:39.139Z,1.70
2023-02-02T01:04:06.315Z,1.90
2023-02-02T01:06:33.628Z,1.40
2023-02-02T01:09:00.775Z,1.55
2023-02-02T01:11:27.966Z,1.42
2023-02-02T01:13:55.182Z,1.48
2023-02-02T01:16:22.692Z,1.20
2023-02-02T01:18:50.319Z,1.10
2023-02-02T01:21:17.584Z,1.30
2023-02-02T01:23:44.902Z,1.60
2023-02-02T01:26:12.636Z,1.42
2023-02-02T01:28:40.266Z,1.15
2023-02-02T01:31:18.779Z,1.60
2023-02-02T01:33:46.785Z,1.42
2023-02-02T01:36:15.263Z,1.38
2023-02-02T01:38:42.977Z,1.60
2023-02-02T01:41:13.436Z,1.42
2023-02-02T01:43:44.063Z,1.30
2023-02-02T01:46:22.021Z,1.48
2023-02-02T01:48:53.062Z,1.63
2023-02-02T01:51:25.336Z,1.23
2023-02-02T01:53:54.140Z,1.20
2023-02-02T01:56:34.973Z,1.60
2023-02-02T01:59:03.177Z,1.58
2023-02-02T02:01:30.402Z,1.48
2023-02-02T02:03:57.723Z,1.40
2023-02-02T02:06:25.958Z,1.85
2023-02-02T02:09:02.819Z,1.30
2023-02-02T02:11:30.329Z,1.80
2023-02-02T02:14:17.457Z,1.30
2023-02-02T02:16:44.602Z,1.73
2023-02-02T02:19:30.244Z,1.58
2023-02-02T02:22:25.759Z,1.10
2023-02-02T02:25:24.030Z,1.52
2023-02-02T02:28:16.803Z,1.23
2023-02-02T02:31:01.049Z,1.27
2023-02-02T02:33:32.265Z,1.50
2023-02-02T02:36:08.721Z,1.48
2023-02-02T02:38:43.102Z,1.40
2023-02-02T02:41:12.899Z,1.50
2023-02-02T02:43:42.650Z,1.25
2023-02-02T02:46:10.418Z,1.40
2023-02-02T02:48:37.820Z,1.73
2023-02-02T02:51:09.226Z,1.67
2023-02-02T02:53:37.801Z,1.60
2023-02-02T02:56:23.022Z,1.88
2023-02-02T02:58:55.477Z,2.20
2023-02-02T03:01:25.645Z,1.58
2023-02-02T03:04:19.245Z,1.80
2023-02-02T03:07:01.977Z,1.33
2023-02-02T03:09:35.599Z,1.47
2023-02-02T03:12:02.908Z,1.20
2023-02-02T03:14:30.130Z,1.20
2023-02-02T03:16:57.282Z,1.08
2023-02-02T03:19:24.543Z,1.08
2023-02-02T03:21:51.720Z,1.80
2023-02-02T03:24:18.848Z,1.17
2023-02-02T03:26:46.216Z,1.45
2023-02-02T03:29:13.893Z,1.45
2023-02-02T03:31:41.131Z,1.20
2023-02-02T03:34:08.370Z,1.15
2023-02-02T03:36:35.622Z,1.10
2023-02-02T03:39:02.788Z,1.45
2023-02-02T03:41:29.977Z,1.40
2023-02-02T03:43:57.125Z,1.20
2023-02-02T03:46:24.343Z,1.65
2023-02-02T03:48:51.586Z,0.95
2023-02-02T03:51:18.732Z,1.45
2023-02-02T03:53:47.911Z,1.38
2023-02-02T03:56:15.609Z,0.88
2023-02-02T03:58:42.823Z,1.65
2023-02-02T04:01:12.966Z,1.40
2023-02-02T04:03:40.152Z,1.20
2023-02-02T04:06:07.375Z,1.40
2023-02-02T04:08:34.887Z,1.10
2023-02-02T04:11:02.073Z,2.08
2023-02-02T04:13:29.348Z,1.33
2023-02-02T04:16:00.819Z,2.05
2023-02-02T04:18:28.112Z,1.42
2023-02-02T04:20:59.392Z,1.40
2023-02-02T04:23:26.537Z,1.27
2023-02-02T04:25:53.736Z,1.52
2023-02-02T04:28:21.429Z,1.45
2023-02-02T04:30:48.705Z,1.20
2023-02-02T04:33:15.906Z,1.10
2023-02-02T04:35:44.774Z,1.02
2023-02-02T04:38:12.070Z,1.25
2023-02-02T04:40:46.299Z,0.93
2023-02-02T04:43:13.453Z,1.92
2023-02-02T04:45:42.346Z,1.10
2023-02-02T04:48:09.669Z,1.15
2023-02-02T04:50:36.940Z,1.40
2023-02-02T04:53:04.394Z,1.50
2023-02-02T04:55:31.622Z,1.45
2023-02-02T04:57:58.943Z,2.55
2023-02-02T05:00:26.165Z,4.05
2023-02-02T05:02:53.395Z,3.63
2023-02-02T05:05:20.689Z,2.10
2023-02-02T05:07:47.916Z,1.80
2023-02-02T05:10:15.221Z,1.30
2023-02-02T05:12:42.391Z,1.75
2023-02-02T05:15:09.859Z,1.70
2023-02-02T05:17:37.010Z,1.67
2023-02-02T05:20:04.275Z,1.52
2023-02-02T05:22:31.500Z,1.58
2023-02-02T05:24:58.710Z,1.45
2023-02-02T05:27:25.889Z,1.00
2023-02-02T05:29:53.076Z,1.10
2023-02-02T05:32:20.192Z,2.13
2023-02-02T05:34:47.340Z,1.48
2023-02-02T05:37:14.472Z,2.60
2023-02-02T05:39:41.631Z,1.60
2023-02-02T05:42:08.791Z,1.25
2023-02-02T05:44:35.963Z,1.42
2023-02-02T05:47:03.178Z,1.15
2023-02-02T05:49:30.425Z,1.65
2023-02-02T05:51:59.071Z,1.63
2023-02-02T05:54:26.253Z,1.60
2023-02-02T05:56:56.024Z,1.33
2023-02-02T05:59:24.375Z,1.65
2023-02-02T06:01:51.559Z,1.20
2023-02-02T06:04:18.660Z,1.55
2023-02-02T06:06:47.851Z,1.27
2023-02-02T06:09:15.140Z,1.45
2023-02-02T06:11:44.073Z,0.75
2023-02-02T06:14:11.494Z,1.40
2023-02-02T06:16:38.646Z,1.52
2023-02-02T06:19:05.813Z,2.25
2023-02-02T06:21:33.062Z,1.17
2023-02-02T06:24:00.297Z,1.20
2023-02-02T06:26:27.594Z,1.38
2023-02-02T06:28:55.413Z,1.55
2023-02-02T06:31:24.143Z,1.38
2023-02-02T06:33:58.091Z,1.70
2023-02-02T06:36:26.312Z,1.83
2023-02-02T06:38:54.621Z,1.10
2023-02-02T06:41:21.828Z,1.55
2023-02-02T06:43:49.596Z,1.65
2023-02-02T06:46:17.285Z,1.73
2023-02-02T06:48:44.458Z,1.30
2023-02-02T06:51:11.582Z,1.50
2023-02-02T06:53:38.690Z,1.40
2023-02-02T06:56:07.284Z,1.25
2023-02-02T06:58:34.676Z,2.15
2023-02-02T07:01:04.345Z,1.73
2023-02-02T07:03:31.773Z,1.83
2023-02-02T07:05:58.978Z,2.13
2023-02-02T07:08:26.175Z,2.75
2023-02-02T07:11:09.428Z,1.55
2023-02-02T07:13:40.513Z,1.10
2023-02-02T07:16:09.766Z,0.90
2023-02-02T07:18:37.031Z,1.38
2023-02-02T07:21:04.291Z,0.98
2023-02-02T07:23:31.739Z,1.52
2023-02-02T07:26:05.742Z,1.20
2023-02-02T07:28:32.983Z,1.75
2023-02-02T07:31:00.454Z,1.65
2023-02-02T07:33:27.677Z,0.75
2023-02-02T07:35:54.894Z,1.08
2023-02-02T07:38:22.206Z,1.20
2023-02-02T07:40:49.438Z,1.10
2023-02-02T07:43:16.804Z,1.52
2023-02-02T07:45:44.277Z,0.90
2023-02-02T07:48:11.395Z,0.80
2023-02-02T07:50:38.581Z,0.85
2023-02-02T07:53:06.156Z,1.00
2023-02-02T07:55:33.341Z,0.95
2023-02-02T07:58:01.634Z,0.60
2023-02-02T08:00:29.649Z,0.82
2023-02-02T08:02:56.913Z,1.15
2023-02-02T08:05:24.485Z,0.70
2023-02-02T08:07:51.803Z,1.00
2023-02-02T08:10:19.125Z,0.80
2023-02-02T08:12:46.248Z,0.85
2023-02-02T08:15:13.415Z,0.77
2023-02-02T08:17:40.619Z,0.80
2023-02-02T08:20:08.355Z,0.68
2023-02-02T08:22:35.536Z,0.90
2023-02-02T08:25:02.711Z,0.85
2023-02-02T08:27:29.919Z,0.75
2023-02-02T08:29:57.229Z,0.65
2023-02-02T08:32:24.521Z,0.50
2023-02-02T08:34:54.894Z,0.57
2023-02-02T08:37:22.067Z,0.52
2023-02-02T08:39:49.259Z,0.35
2023-02-02T08:42:16.405Z,0.50
2023-02-02T08:45:59.205Z,0.40
2023-02-02T08:47:30.872Z,0.30
2023-02-02T08:49:58.533Z,0.35
2023-02-02T08:52:26.011Z,0.90
2023-02-02T08:54:53.511Z,0.38
2023-02-02T08:57:20.697Z,0.50
2023-02-02T08:59:48.148Z,0.32
2023-02-02T09:02:16.775Z,0.90
2023-02-02T09:04:45.581Z,0.20
2023-02-02T09:07:12.833Z,0.20
2023-02-02T09:09:39.978Z,0.20
2023-02-02T09:12:07.573Z,0.40
2023-02-02T09:14:34.705Z,0.17
2023-02-02T09:17:01.914Z,0.40
2023-02-02T09:19:29.153Z,0.32
2023-02-02T09:21:56.300Z,0.30
2023-02-02T09:24:23.528Z,0.20
2023-02-02T09:26:50.861Z,0.30
2023-02-02T09:29:18.464Z,0.60
2023-02-02T09:31:47.017Z,0.40
2023-02-02T09:34:15.671Z,0.25
2023-02-02T09:36:43.251Z,0.57
2023-02-02T09:39:12.824Z,6.43
2023-02-02T09:41:40.545Z,2.75
2023-02-02T09:44:26.270Z,0.60
2023-02-02T09:46:59.342Z,0.38
2023-02-02T09:49:33.670Z,0.20
2023-02-02T09:52:03.521Z,0.77
2023-02-02T09:54:45.031Z,0.50
2023-02-02T09:57:21.259Z,0.77
2023-02-02T09:59:50.031Z,0.57
2023-02-02T10:02:38.972Z,0.75
2023-02-02T10:05:14.201Z,0.30
2023-02-02T10:07:45.673Z,1.00
2023-02-02T10:10:18.686Z,1.00
2023-02-02T10:13:00.357Z,0.73
2023-02-02T10:15:33.522Z,0.40
2023-02-02T10:18:05.906Z,0.28
2023-02-02T10:20:41.572Z,0.55
2023-02-02T10:23:27.728Z,0.68
2023-02-02T10:26:02.288Z,0.60
2023-02-02T10:28:36.532Z,0.80
2023-02-02T10:31:03.892Z,1.27
2023-02-02T10:33:40.664Z,1.70
2023-02-02T10:36:22.936Z,0.65
2023-02-02T10:38:54.459Z,1.48
2023-02-02T10:41:36.136Z,0.40
2023-02-02T10:44:06.812Z,0.60
2023-02-02T10:46:41.990Z,0.50
2023-02-02T10:49:21.530Z,0.30
2023-02-02T10:51:55.916Z,0.55
2023-02-02T10:54:30.815Z,0.38
2023-02-02T10:56:59.907Z,0.20
2023-02-02T10:59:39.413Z,0.28
2023-02-02T11:02:20.339Z,0.20
2023-02-02T11:05:07.144Z,0.60
2023-02-02T11:07:34.329Z,0.60
2023-02-02T11:10:01.493Z,0.77
2023-02-02T11:12:33.848Z,0.50
2023-02-02T11:15:05.280Z,1.15
2023-02-02T11:17:33.367Z,0.77
2023-02-02T11:20:00.594Z,0.30
2023-02-02T11:22:35.228Z,0.40
2023-02-02T11:25:03.906Z,0.20
2023-02-02T11:27:41.346Z,0.30
2023-02-02T11:30:27.506Z,0.50
2023-02-02T11:32:55.842Z,2.55
2023-02-02T11:35:27.220Z,2.63
2023-02-02T11:37:54.433Z,0.10
2023-02-02T11:40:26.634Z,0.28
2023-02-02T11:42:54.256Z,0.60
2023-02-02T11:45:28.709Z,1.75
2023-02-02T11:48:01.387Z,0.82
2023-02-02T11:50:29.088Z,0.63
2023-02-02T11:52:56.535Z,0.50
2023-02-02T11:55:32.613Z,0.50
2023-02-02T11:58:32.220Z,0.40
2023-02-02T12:01:01.201Z,1.02
2023-02-02T12:03:37.155Z,0.90
2023-02-02T12:06:21.482Z,0.73
2023-02-02T12:08:48.713Z,1.23
2023-02-02T12:11:25.007Z,2.13
2023-02-02T12:14:12.200Z,0.98
2023-02-02T12:16:39.509Z,0.90
2023-02-02T12:19:25.511Z,0.40
2023-02-02T12:22:14.709Z,0.90
2023-02-02T12:25:02.399Z,1.63
2023-02-02T12:27:29.597Z,0.70
2023-02-02T12:29:56.718Z,0.30
2023-02-02T12:32:28.101Z,0.68
2023-02-02T12:34:58.348Z,0.40
2023-02-02T12:37:34.476Z,0.40
2023-02-02T12:40:04.678Z,0.60
2023-02-02T12:42:50.711Z,0.30
2023-02-02T12:45:25.226Z,0.22
2023-02-02T12:48:07.061Z,0.30
2023-02-02T12:50:52.030Z,0.60
2023-02-02T12:53:31.723Z,0.68
2023-02-02T12:56:17.986Z,0.95
2023-02-02T12:58:52.480Z,0.50
2023-02-02T13:01:19.759Z,0.30
2023-02-02T13:03:50.063Z,0.50
2023-02-02T13:06:30.547Z,0.35
2023-02-02T13:09:06.226Z,0.38
2023-02-02T13:11:49.769Z,0.30
2023-02-02T13:14:33.893Z,0.63
2023-02-02T13:17:03.565Z,0.47
2023-02-02T13:19:39.346Z,0.40
2023-02-02T13:22:08.013Z,0.50
2023-02-02T13:24:37.689Z,0.47
2023-02-02T13:27:06.757Z,0.40
2023-02-02T13:29:47.637Z,0.50
2023-02-02T13:32:31.360Z,0.63
2023-02-02T13:35:07.475Z,0.60
2023-02-02T13:37:43.408Z,0.60
2023-02-02T13:40:21.901Z,0.30
2023-02-02T13:42:53.861Z,0.47
2023-02-02T13:45:34.428Z,0.57
2023-02-02T13:48:20.478Z,0.75
2023-02-02T13:51:11.455Z,0.82
2023-02-02T13:53:39.671Z,0.50
2023-02-02T13:56:09.759Z,0.60
2023-02-02T13:58:57.200Z,0.65
2023-02-02T14:01:24.927Z,0.68
2023-02-02T14:03:54.047Z,1.05
2023-02-02T14:06:22.424Z,1.58
2023-02-02T14:08:57.871Z,1.90
2023-02-02T14:11:30.386Z,1.23
2023-02-02T14:14:28.321Z,1.80
2023-02-02T14:16:56.718Z,3.22
2023-02-02T14:19:29.923Z,2.28
2023-02-02T14:22:12.154Z,2.20
2023-02-02T14:24:41.689Z,2.25
2023-02-02T14:27:08.887Z,1.50
2023-02-02T14:29:41.843Z,0.77
2023-02-02T14:32:30.181Z,0.77
2023-02-02T14:34:58.336Z,1.20
2023-02-02T14:37:28.254Z,1.30
2023-02-02T14:40:08.522Z,1.38
2023-02-02T14:43:03.473Z,1.48
2023-02-02T14:45:33.679Z,1.77
2023-02-02T14:48:02.432Z,1.58
2023-02-02T14:50:38.876Z,9.68
2023-02-02T14:53:18.203Z,5.55
2023-02-02T14:56:05.922Z,2.47
2023-02-02T14:58:40.591Z,1.40
2023-02-02T15:01:10.588Z,1.45
2023-02-02T15:03:37.741Z,1.60
2023-02-02T15:06:15.207Z,1.10
2023-02-02T15:08:42.506Z,1.00
2023-02-02T15:11:27.886Z,1.95
2023-02-02T15:13:56.952Z,1.08
2023-02-02T15:16:30.057Z,0.80
2023-02-02T15:19:01.661Z,1.23
2023-02-02T15:21:30.105Z,1.48
2023-02-02T15:23:57.563Z,2.30
2023-02-02T15:26:24.870Z,1.55
2023-02-02T15:28:52.396Z,1.58
2023-02-02T15:31:32.345Z,1.70
2023-02-02T15:34:01.364Z,1.48
2023-02-02T15:36:31.949Z,3.28
2023-02-02T15:39:00.659Z,9.75
2023-02-02T15:41:29.271Z,6.75
2023-02-02T15:43:56.412Z,3.53
2023-02-02T15:46:32.378Z,3.35
2023-02-02T15:49:32.675Z,3.60
2023-02-02T15:52:02.234Z,2.78
2023-02-02T15:54:30.870Z,3.00
2023-02-02T15:57:00.313Z,2.30
2023-02-02T15:59:29.240Z,2.55
2023-02-02T16:02:05.091Z,2.38
2023-02-02T16:04:35.869Z,2.60
2023-02-02T16:07:03.455Z,5.20
2023-02-02T16:09:34.950Z,4.70
2023-02-02T16:12:02.502Z,2.63
2023-02-02T16:14:30.782Z,2.13
2023-02-02T16:17:10.576Z,2.88
2023-02-02T16:19:38.138Z,3.45
2023-02-02T16:22:08.335Z,4.20
2023-02-02T16:24:37.027Z,4.55
2023-02-02T16:27:06.507Z,4.90
2023-02-02T16:29:34.101Z,4.10
2023-02-02T16:32:01.495Z,4.18
2023-02-02T16:34:40.900Z,5.25
2023-02-02T16:37:15.602Z,5.38
2023-02-02T16:39:42.863Z,4.15
2023-02-02T16:42:11.056Z,3.38
2023-02-02T16:44:39.731Z,4.55
2023-02-02T16:47:08.143Z,3.05
2023-02-02T16:49:36.569Z,3.50
2023-02-02T16:52:18.050Z,3.65
2023-02-02T16:55:11.708Z,4.03
2023-02-02T16:57:39.900Z,3.20
2023-02-02T17:00:09.175Z,3.55
2023-02-02T17:02:39.474Z,4.18
2023-02-02T17:05:21.563Z,3.05
2023-02-02T17:07:55.461Z,5.20
2023-02-02T17:10:30.969Z,4.22
2023-02-02T17:12:59.234Z,3.30
2023-02-02T17:15:29.287Z,2.88
2023-02-02T17:17:56.863Z,3.80
2023-02-02T17:20:26.105Z,3.28
2023-02-02T17:22:55.065Z,4.88
2023-02-02T17:25:28.236Z,3.05
2023-02-02T17:27:56.404Z,3.25
2023-02-02T17:30:23.763Z,3.05
2023-02-02T17:32:51.297Z,2.35
2023-02-02T17:35:19.870Z,2.67
2023-02-02T17:37:47.499Z,2.50
2023-02-02T17:40:15.128Z,2.20
2023-02-02T17:42:43.246Z,4.90
2023-02-02T17:45:24.484Z,4.47
2023-02-02T17:47:52.357Z,4.97
2023-02-02T17:50:20.769Z,3.28
2023-02-02T17:52:48.672Z,2.50
2023-02-02T17:55:21.027Z,1.80
2023-02-02T17:57:52.202Z,1.67
2023-02-02T18:00:20.633Z,1.45
2023-02-02T18:02:48.619Z,1.70
2023-02-02T18:05:16.674Z,2.10
2023-02-02T18:07:44.210Z,1.88
2023-02-02T18:10:15.165Z,1.58
2023-02-02T18:12:42.803Z,1.65
2023-02-02T18:15:12.964Z,2.20
2023-02-02T18:17:40.103Z,1.73
2023-02-02T18:20:07.509Z,3.47
2023-02-02T18:22:34.776Z,3.13
2023-02-02T18:25:03.547Z,3.08
2023-02-02T18:27:30.896Z,2.13
2023-02-02T18:29:58.174Z,2.40
2023-02-02T18:32:25.438Z,3.00
2023-02-02T18:34:55.804Z,3.47
2023-02-02T18:37:26.333Z,2.72
2023-02-02T18:39:54.587Z,2.35
2023-02-02T18:42:21.734Z,1.75
2023-02-02T18:44:49.058Z,2.65
2023-02-02T18:47:16.232Z,2.33
2023-02-02T18:49:43.719Z,2.30
2023-02-02T18:52:11.045Z,2.53
2023-02-02T18:54:38.188Z,2.70
2023-02-02T18:57:22.671Z,2.45
2023-02-02T18:59:52.512Z,2.38
2023-02-02T19:02:20.881Z,2.65
2023-02-02T19:05:06.717Z,2.55
2023-02-02T19:07:52.489Z,3.00
2023-02-02T19:10:19.827Z,2.97
2023-02-02T19:12:49.270Z,3.50
2023-02-02T19:15:16.569Z,3.75
2023-02-02T19:17:45.174Z,3.72
2023-02-02T19:20:30.037Z,4.68
2023-02-02T19:23:01.219Z,3.53
2023-02-02T19:25:31.125Z,2.90
2023-02-02T19:27:59.044Z,3.60
2023-02-02T19:30:26.532Z,4.25
2023-02-02T19:32:53.886Z,4.63
2023-02-02T19:35:22.387Z,5.25
2023-02-02T19:37:50.376Z,6.63
2023-02-02T19:40:24.569Z,8.60
2023-02-02T19:42:57.775Z,5.43
2023-02-02T19:45:31.990Z,4.93
2023-02-02T19:48:01.090Z,3.83
2023-02-02T19:50:31.967Z,3.80
2023-02-02T19:52:59.321Z,3.92
2023-02-02T19:55:28.452Z,3.65
2023-02-02T19:58:01.243Z,4.40
2023-02-02T20:00:29.976Z,3.63
2023-02-02T20:03:05.018Z,4.20
2023-02-02T20:05:43.491Z,3.75
2023-02-02T20:08:13.659Z,3.58
2023-02-02T20:10:46.058Z,4.20
2023-02-02T20:13:16.065Z,4.03
2023-02-02T20:15:43.659Z,4.38
2023-02-02T20:18:21.639Z,4.53
2023-02-02T20:20:50.660Z,5.35
2023-02-02T20:23:20.811Z,5.70
2023-02-02T20:25:48.050Z,5.45
2023-02-02T20:28:25.737Z,6.07
2023-02-02T20:30:52.921Z,5.00
2023-02-02T20:33:27.842Z,5.40
2023-02-02T20:35:55.132Z,7.20
2023-02-02T20:38:24.276Z,6.75
2023-02-02T20:40:52.241Z,6.65
2023-02-02T20:43:19.467Z,6.72
2023-02-02T20:45:46.779Z,6.65
2023-02-02T20:48:15.437Z,9.32
2023-02-02T20:50:43.180Z,6.45
2023-02-02T20:53:10.773Z,6.43
2023-02-02T20:55:38.013Z,6.80
2023-02-02T20:58:05.660Z,6.40
2023-02-02T21:00:33.263Z,5.88
2023-02-02T21:03:00.433Z,6.10
2023-02-02T21:05:27.619Z,6.18
2023-02-02T21:07:55.026Z,5.57
2023-02-02T21:10:28.794Z,6.90
2023-02-02T21:12:56.365Z,6.78
2023-02-02T21:15:23.625Z,8.02
2023-02-02T21:17:50.840Z,7.15
2023-02-02T21:20:18.144Z,7.63
2023-02-02T21:22:45.462Z,8.18
2023-02-02T21:25:12.735Z,10.45
2023-02-02T21:27:44.475Z,8.57
2023-02-02T21:30:14.246Z,7.53
2023-02-02T21:32:41.539Z,9.63
2023-02-02T21:35:08.865Z,11.00
2023-02-02T21:37:37.330Z,14.82
2023-02-02T21:40:12.811Z,14.18
2023-02-02T21:42:40.050Z,17.00
2023-02-02T21:45:26.442Z,19.17
2023-02-02T21:48:00.791Z,17.20
2023-02-02T21:50:33.246Z,20.33
2023-02-02T21:53:20.432Z,22.30
2023-02-02T21:55:50.724Z,15.30
2023-02-02T21:58:23.075Z,19.52
2023-02-02T22:00:50.730Z,21.10
2023-02-02T22:03:34.886Z,17.98
2023-02-02T22:06:20.789Z,31.90
2023-02-02T22:08:50.749Z,24.35
2023-02-02T22:11:22.931Z,23.15
2023-02-02T22:13:50.476Z,23.98
2023-02-02T22:16:20.300Z,26.42
2023-02-02T22:18:47.839Z,26.13
2023-02-02T22:21:17.947Z,26.92
2023-02-02T22:23:46.276Z,26.00
2023-02-02T22:26:20.491Z,21.95
2023-02-02T22:28:47.704Z,22.83
2023-02-02T22:31:15.160Z,23.05
2023-02-02T22:33:42.319Z,20.05
2023-02-02T22:36:09.568Z,22.73
2023-02-02T22:38:36.925Z,22.27
2023-02-02T22:41:06.314Z,17.38
2023-02-02T22:43:33.511Z,15.07
2023-02-02T22:46:00.731Z,15.73
2023-02-02T22:48:27.891Z,20.25
2023-02-02T22:50:55.173Z,16.25
2023-02-02T22:53:22.429Z,19.90
2023-02-02T22:55:56.290Z,15.00
2023-02-02T22:58:24.499Z,14.50
2023-02-02T23:00:51.886Z,19.02
2023-02-02T23:03:19.187Z,19.75
2023-02-02T23:05:46.400Z,14.68
2023-02-02T23:08:13.558Z,20.20
2023-02-02T23:10:40.747Z,15.27
2023-02-02T23:13:08.139Z,16.70
2023-02-02T23:15:35.543Z,16.60
2023-02-02T23:18:02.833Z,16.27
2023-02-02T23:20:30.060Z,17.80
2023-02-02T23:22:57.198Z,16.80
2023-02-02T23:25:24.336Z,15.80
2023-02-02T23:27:51.520Z,17.30
2023-02-02T23:30:21.151Z,16.67
2023-02-02T23:32:48.895Z,19.65
2023-02-02T23:35:16.573Z,16.60
2023-02-02T23:37:43.822Z,19.38
2023-02-02T23:40:11.503Z,14.32
2023-02-02T23:42:38.723Z,23.50
2023-02-02T23:45:06.866Z,24.90
2023-02-02T23:47:35.173Z,29.05
2023-02-02T23:50:08.622Z,21.77
2023-02-02T23:52:36.475Z,19.60
2023-02-02T23:55:04.313Z,16.85
2023-02-02T23:57:33.718Z,20.50
